Time;durP1;ratioP1;P1;durP2;ratioP2;P2;SDS_P1;SDS_P2;PMS_P1;PMS_P2;Temp;Humidity;BMP_temperature;BMP_pressure;BME280_temperature;BME280_humidity;BME280_pressure;Samples;Min_cycle;Max_cycle;Signal;HPM_P1;HPM_P2
2023/12/12 00:02:12;;;;;;;6.07;2.28;;;;;;;;;;5089701;28;20376;-70
2023/12/12 00:04:38;;;;;;;7.80;2.15;;;;;;;;;;5089237;28;20131;-70
2023/12/12 00:07:05;;;;;;;9.52;2.50;;;;;;;;;;5090932;28;20036;-70
2023/12/12 00:09:31;;;;;;;8.40;2.00;;;;;;;;;;5072943;28;20044;-70
2023/12/12 00:11:57;;;;;;;5.47;1.83;;;;;;;;;;5090836;28;20615;-70
2023/12/12 00:14:23;;;;;;;6.75;1.85;;;;;;;;;;5089872;28;20514;-70
2023/12/12 00:16:49;;;;;;;6.78;2.22;;;;;;;;;;5089865;28;20047;-70
2023/12/12 00:19:15;;;;;;;7.93;3.25;;;;;;;;;;5059833;28;20498;-70
2023/12/12 00:21:41;;;;;;;8.10;2.05;;;;;;;;;;5069709;28;20127;-70
2023/12/12 00:24:07;;;;;;;8.88;2.03;;;;;;;;;;5070674;28;20044;-70
2023/12/12 00:26:33;;;;;;;13.95;2.20;;;;;;;;;;5083521;28;20486;-70
2023/12/12 00:28:59;;;;;;;7.60;1.92;;;;;;;;;;5089668;28;20048;-70
2023/12/12 00:31:25;;;;;;;10.10;2.00;;;;;;;;;;5089764;28;20505;-70
2023/12/12 00:33:51;;;;;;;6.70;1.90;;;;;;;;;;5090584;28;20032;-70
2023/12/12 00:36:17;;;;;;;12.30;2.22;;;;;;;;;;5089545;28;20548;-70
2023/12/12 00:38:43;;;;;;;9.80;2.03;;;;;;;;;;5090733;28;20442;-70
2023/12/12 00:41:09;;;;;;;5.38;2.05;;;;;;;;;;5088974;28;20467;-70
2023/12/12 00:43:35;;;;;;;6.22;1.60;;;;;;;;;;5089503;28;20646;-70
2023/12/12 00:46:02;;;;;;;9.35;2.50;;;;;;;;;;5089073;28;20051;-70
2023/12/12 00:48:28;;;;;;;8.73;2.00;;;;;;;;;;5088960;28;20040;-70
2023/12/12 00:50:55;;;;;;;13.30;1.75;;;;;;;;;;5089259;28;20047;-70
2023/12/12 00:53:21;;;;;;;10.07;2.20;;;;;;;;;;5090432;28;20079;-70
2023/12/12 00:55:47;;;;;;;8.73;2.17;;;;;;;;;;5091832;28;20040;-70
2023/12/12 00:58:13;;;;;;;8.25;2.80;;;;;;;;;;5092611;28;20056;-70
2023/12/12 01:00:39;;;;;;;8.52;2.20;;;;;;;;;;5092926;28;20432;-70
2023/12/12 01:03:05;;;;;;;7.10;2.00;;;;;;;;;;5092747;28;20058;-70
2023/12/12 01:05:31;;;;;;;5.80;1.83;;;;;;;;;;5092781;28;20052;-70
2023/12/12 01:07:57;;;;;;;5.93;1.92;;;;;;;;;;5092573;28;20093;-70
2023/12/12 01:10:23;;;;;;;12.40;1.80;;;;;;;;;;5093609;28;20476;-70
2023/12/12 01:12:50;;;;;;;5.97;1.42;;;;;;;;;;5092560;28;20136;-70
2023/12/12 01:15:16;;;;;;;9.00;1.80;;;;;;;;;;5092541;28;20046;-70
2023/12/12 01:17:42;;;;;;;5.13;1.50;;;;;;;;;;5093527;28;20044;-70
2023/12/12 01:20:08;;;;;;;6.78;1.65;;;;;;;;;;5073947;28;20040;-70
2023/12/12 01:22:34;;;;;;;11.40;2.20;;;;;;;;;;5072156;28;20044;-70
2023/12/12 01:25:01;;;;;;;7.13;1.52;;;;;;;;;;5073179;28;20083;-70
2023/12/12 01:27:27;;;;;;;7.60;1.85;;;;;;;;;;5093540;28;20127;-70
2023/12/12 01:29:54;;;;;;;8.27;1.38;;;;;;;;;;5092258;28;20051;-70
2023/12/12 01:32:20;;;;;;;7.60;1.50;;;;;;;;;;5093677;28;20040;-70
2023/12/12 01:34:46;;;;;;;6.80;1.50;;;;;;;;;;5093647;28;20516;-70
2023/12/12 01:37:12;;;;;;;3.90;1.33;;;;;;;;;;5093689;28;20726;-70
2023/12/12 01:39:38;;;;;;;6.45;2.10;;;;;;;;;;5091859;28;20401;-70
2023/12/12 01:42:04;;;;;;;4.50;1.75;;;;;;;;;;5091991;28;20052;-70
2023/12/12 01:44:31;;;;;;;6.32;1.80;;;;;;;;;;5093200;28;20044;-70
2023/12/12 01:46:57;;;;;;;6.88;1.90;;;;;;;;;;5093432;28;20378;-70
2023/12/12 01:49:23;;;;;;;5.80;2.28;;;;;;;;;;5091403;28;20088;-70
2023/12/12 01:51:49;;;;;;;6.57;1.75;;;;;;;;;;5093466;28;20439;-70
2023/12/12 01:54:17;;;;;;;7.53;1.88;;;;;;;;;;5091769;28;20394;-70
2023/12/12 01:56:46;;;;;;;8.27;2.60;;;;;;;;;;5092732;28;20158;-70
2023/12/12 01:59:12;;;;;;;7.35;1.85;;;;;;;;;;5091462;28;20052;-70
2023/12/12 02:01:38;;;;;;;5.53;1.85;;;;;;;;;;5091629;28;20059;-70
2023/12/12 02:04:05;;;;;;;7.47;2.00;;;;;;;;;;5092762;28;20044;-70
2023/12/12 02:06:31;;;;;;;6.40;2.45;;;;;;;;;;5092025;28;20432;-70
2023/12/12 02:08:57;;;;;;;9.13;2.10;;;;;;;;;;5092966;28;20403;-70
2023/12/12 02:11:23;;;;;;;10.23;2.33;;;;;;;;;;5092725;28;20044;-70
2023/12/12 02:13:50;;;;;;;6.28;1.80;;;;;;;;;;5091413;28;20035;-70
2023/12/12 02:16:17;;;;;;;7.65;2.17;;;;;;;;;;5091563;28;20127;-70
2023/12/12 02:18:43;;;;;;;5.45;1.70;;;;;;;;;;5082944;28;20053;-70
2023/12/12 02:21:09;;;;;;;9.07;2.20;;;;;;;;;;5072579;28;20132;-70
2023/12/12 02:23:35;;;;;;;9.02;2.03;;;;;;;;;;5070983;28;20076;-70
2023/12/12 02:26:02;;;;;;;6.32;2.17;;;;;;;;;;5080702;28;20505;-70
2023/12/12 02:28:28;;;;;;;9.43;2.80;;;;;;;;;;5090989;28;20075;-70
2023/12/12 02:30:55;;;;;;;8.85;2.70;;;;;;;;;;5091058;28;20126;-70
2023/12/12 02:33:21;;;;;;;6.40;2.70;;;;;;;;;;5090685;28;20089;-70
2023/12/12 02:35:47;;;;;;;5.13;2.28;;;;;;;;;;5090924;28;20448;-70
2023/12/12 02:38:13;;;;;;;7.20;2.38;;;;;;;;;;5091116;28;20467;-70
2023/12/12 02:40:40;;;;;;;7.75;2.70;;;;;;;;;;5090682;28;20047;-70
2023/12/12 02:43:06;;;;;;;9.32;2.90;;;;;;;;;;5092481;28;20466;-70
2023/12/12 02:45:32;;;;;;;8.68;2.70;;;;;;;;;;5091005;28;20044;-70
2023/12/12 02:47:58;;;;;;;9.13;3.60;;;;;;;;;;5091724;28;20087;-71
2023/12/12 02:50:24;;;;;;;10.50;3.90;;;;;;;;;;5092310;28;20549;-71
2023/12/12 02:52:50;;;;;;;14.68;4.47;;;;;;;;;;5090907;28;20079;-70
2023/12/12 02:55:16;;;;;;;11.23;4.10;;;;;;;;;;5090664;28;20066;-70
2023/12/12 02:57:43;;;;;;;11.55;4.00;;;;;;;;;;5090450;28;20078;-70
2023/12/12 03:00:09;;;;;;;13.43;4.43;;;;;;;;;;5091762;28;20087;-70
2023/12/12 03:02:35;;;;;;;11.02;3.97;;;;;;;;;;5090388;28;20066;-70
2023/12/12 03:05:03;;;;;;;9.60;5.15;;;;;;;;;;5091977;28;20085;-70
2023/12/12 03:07:29;;;;;;;11.38;5.75;;;;;;;;;;5090300;28;20044;-70
2023/12/12 03:09:55;;;;;;;15.75;5.15;;;;;;;;;;5090353;28;20082;-70
2023/12/12 03:12:22;;;;;;;14.02;5.28;;;;;;;;;;5090407;28;20040;-70
2023/12/12 03:14:48;;;;;;;9.35;5.07;;;;;;;;;;5090232;28;20044;-70
2023/12/12 03:17:14;;;;;;;14.05;5.53;;;;;;;;;;5089719;28;20398;-70
2023/12/12 03:19:40;;;;;;;15.02;5.68;;;;;;;;;;5074087;28;20044;-70
2023/12/12 03:22:06;;;;;;;15.30;6.10;;;;;;;;;;5071312;28;20082;-70
2023/12/12 03:24:32;;;;;;;15.85;6.15;;;;;;;;;;5069519;28;20127;-70
2023/12/12 03:26:58;;;;;;;18.60;7.00;;;;;;;;;;5089231;28;20645;-70
2023/12/12 03:29:24;;;;;;;15.20;7.07;;;;;;;;;;5091422;28;20105;-70
2023/12/12 03:31:50;;;;;;;16.38;6.63;;;;;;;;;;5089657;28;20039;-70
2023/12/12 03:34:17;;;;;;;19.95;7.35;;;;;;;;;;5091623;28;20065;-70
2023/12/12 03:36:43;;;;;;;20.73;7.93;;;;;;;;;;5091219;28;20058;-70
2023/12/12 03:39:10;;;;;;;18.35;7.53;;;;;;;;;;5089520;28;20054;-70
2023/12/12 03:41:36;;;;;;;18.20;7.70;;;;;;;;;;5090199;28;20048;-70
2023/12/12 03:44:02;;;;;;;14.60;7.40;;;;;;;;;;5090222;28;20470;-70
2023/12/12 03:46:29;;;;;;;19.90;7.15;;;;;;;;;;5089464;28;20090;-70
2023/12/12 03:48:55;;;;;;;17.88;8.18;;;;;;;;;;5091146;28;20035;-70
2023/12/12 03:51:21;;;;;;;17.95;7.57;;;;;;;;;;5090017;28;20047;-70
2023/12/12 03:53:47;;;;;;;17.33;7.85;;;;;;;;;;5089523;28;20048;-70
2023/12/12 03:56:13;;;;;;;15.27;7.18;;;;;;;;;;5090034;28;20028;-70
2023/12/12 03:58:39;;;;;;;15.27;7.57;;;;;;;;;;5090885;28;20480;-70
2023/12/12 04:01:06;;;;;;;21.73;8.68;;;;;;;;;;5089306;28;20090;-70
2023/12/12 04:03:32;;;;;;;21.80;7.97;;;;;;;;;;5073076;28;20038;-70
2023/12/12 04:05:58;;;;;;;23.50;8.32;;;;;;;;;;5089533;28;20040;-70
2023/12/12 04:08:24;;;;;;;25.90;8.60;;;;;;;;;;5089223;28;20094;-70
2023/12/12 04:10:50;;;;;;;19.35;8.25;;;;;;;;;;5089910;28;20043;-70
2023/12/12 04:13:16;;;;;;;19.38;8.23;;;;;;;;;;5090988;28;20406;-70
2023/12/12 04:15:42;;;;;;;19.73;8.10;;;;;;;;;;5089248;28;20032;-70
2023/12/12 04:18:08;;;;;;;20.25;8.77;;;;;;;;;;5069402;28;20422;-70
2023/12/12 04:20:34;;;;;;;20.67;8.73;;;;;;;;;;5070685;28;20044;-70
2023/12/12 04:23:00;;;;;;;24.27;9.30;;;;;;;;;;5070317;28;20090;-70
2023/12/12 04:25:27;;;;;;;19.90;9.27;;;;;;;;;;5074403;28;20068;-70
2023/12/12 04:27:53;;;;;;;19.05;8.88;;;;;;;;;;5089329;28;20090;-70
2023/12/12 04:30:19;;;;;;;24.63;10.07;;;;;;;;;;5091547;28;20097;-70
2023/12/12 04:32:45;;;;;;;26.98;10.77;;;;;;;;;;5093351;28;20047;-70
2023/12/12 04:35:11;;;;;;;22.63;9.65;;;;;;;;;;5093587;28;20052;-70
2023/12/12 04:37:38;;;;;;;35.88;10.73;;;;;;;;;;5094387;28;20043;-70
2023/12/12 04:40:04;;;;;;;24.45;9.32;;;;;;;;;;5094722;28;20379;-70
2023/12/12 04:42:30;;;;;;;23.20;10.23;;;;;;;;;;5093428;28;20069;-70
2023/12/12 04:44:56;;;;;;;23.67;9.73;;;;;;;;;;5094317;28;20054;-70
2023/12/12 04:47:23;;;;;;;24.27;10.48;;;;;;;;;;5094513;28;20040;-70
2023/12/12 04:49:49;;;;;;;17.85;9.52;;;;;;;;;;5094542;28;20467;-70
2023/12/12 04:52:16;;;;;;;25.65;10.60;;;;;;;;;;5092815;28;20382;-70
2023/12/12 04:54:42;;;;;;;23.77;10.98;;;;;;;;;;5076075;28;20097;-70
2023/12/12 04:57:08;;;;;;;26.30;11.25;;;;;;;;;;5092835;28;20059;-70
2023/12/12 04:59:34;;;;;;;29.50;11.18;;;;;;;;;;5092788;28;20052;-70
2023/12/12 05:02:00;;;;;;;24.58;11.40;;;;;;;;;;5094242;28;20116;-70
2023/12/12 05:04:26;;;;;;;26.80;10.35;;;;;;;;;;5092567;28;20048;-70
2023/12/12 05:06:53;;;;;;;24.98;10.88;;;;;;;;;;5092527;28;20048;-70
2023/12/12 05:09:19;;;;;;;48.53;12.07;;;;;;;;;;5092344;28;20119;-70
2023/12/12 05:11:45;;;;;;;21.63;11.68;;;;;;;;;;5092875;28;20044;-70
2023/12/12 05:14:11;;;;;;;24.33;12.75;;;;;;;;;;5093867;28;20074;-70
2023/12/12 05:16:37;;;;;;;19.88;10.80;;;;;;;;;;5092187;28;20086;-70
2023/12/12 05:19:03;;;;;;;22.45;11.68;;;;;;;;;;5081416;28;20521;-70
2023/12/12 05:21:30;;;;;;;103.45;16.40;;;;;;;;;;5072384;28;20055;-70
2023/12/12 05:23:56;;;;;;;22.08;11.02;;;;;;;;;;5073232;28;20506;-70
2023/12/12 05:26:22;;;;;;;33.95;11.95;;;;;;;;;;5084801;28;20082;-70
2023/12/12 05:28:48;;;;;;;25.73;11.15;;;;;;;;;;5092073;28;20454;-70
2023/12/12 05:31:14;;;;;;;31.15;12.80;;;;;;;;;;5092142;28;20636;-70
2023/12/12 05:33:41;;;;;;;25.17;11.57;;;;;;;;;;5092154;28;20108;-70
2023/12/12 05:36:07;;;;;;;27.95;12.60;;;;;;;;;;5092263;28;20043;-70
2023/12/12 05:38:34;;;;;;;30.63;12.30;;;;;;;;;;5091561;28;20123;-70
2023/12/12 05:41:00;;;;;;;28.85;12.43;;;;;;;;;;5093295;28;20074;-70
2023/12/12 05:43:26;;;;;;;26.88;12.70;;;;;;;;;;5091933;28;20047;-70
2023/12/12 05:45:52;;;;;;;25.10;13.05;;;;;;;;;;5091407;28;20040;-70
2023/12/12 05:48:18;;;;;;;28.67;12.80;;;;;;;;;;5091618;28;20059;-70
2023/12/12 05:50:44;;;;;;;24.98;11.82;;;;;;;;;;5091900;28;20366;-70
2023/12/12 05:53:10;;;;;;;28.67;13.05;;;;;;;;;;5091360;28;20040;-70
2023/12/12 05:55:36;;;;;;;27.15;12.95;;;;;;;;;;5091979;28;20050;-70
2023/12/12 05:58:04;;;;;;;26.27;11.85;;;;;;;;;;5091399;28;20059;-70
2023/12/12 06:00:30;;;;;;;32.50;13.23;;;;;;;;;;5091559;28;20558;-70
2023/12/12 06:02:56;;;;;;;46.90;14.98;;;;;;;;;;5091544;28;20040;-70
2023/12/12 06:05:22;;;;;;;35.55;14.65;;;;;;;;;;5091410;28;20463;-70
2023/12/12 06:07:48;;;;;;;31.50;15.82;;;;;;;;;;5090872;28;20399;-70
2023/12/12 06:10:14;;;;;;;30.80;16.38;;;;;;;;;;5091806;28;20044;-70
2023/12/12 06:12:40;;;;;;;34.13;16.40;;;;;;;;;;5091351;28;20107;-70
2023/12/12 06:15:07;;;;;;;59.75;17.40;;;;;;;;;;5091059;28;20093;-70
2023/12/12 06:17:36;;;;;;;49.15;18.17;;;;;;;;;;5091218;28;20135;-70
2023/12/12 06:20:03;;;;;;;69.43;18.65;;;;;;;;;;5092735;28;20040;-70
2023/12/12 06:22:29;;;;;;;43.13;15.77;;;;;;;;;;5090733;28;20139;-70
2023/12/12 06:24:55;;;;;;;70.75;18.60;;;;;;;;;;5073302;28;20457;-70
2023/12/12 06:27:21;;;;;;;46.50;19.10;;;;;;;;;;5070952;28;20102;-70
2023/12/12 06:29:49;;;;;;;42.40;17.55;;;;;;;;;;5070690;28;20051;-70
2023/12/12 06:32:16;;;;;;;62.50;19.25;;;;;;;;;;5070695;28;20044;-72
2023/12/12 06:34:45;;;;;;;61.05;20.05;;;;;;;;;;5084036;28;20093;-69
2023/12/12 06:37:11;;;;;;;62.00;18.95;;;;;;;;;;5091317;28;20040;-70
2023/12/12 06:39:37;;;;;;;56.90;20.13;;;;;;;;;;5091804;28;20445;-70
2023/12/12 06:42:04;;;;;;;55.80;20.00;;;;;;;;;;5092404;28;20036;-70
2023/12/12 06:44:30;;;;;;;75.63;21.15;;;;;;;;;;5092000;28;20036;-69
2023/12/12 06:46:56;;;;;;;47.22;19.90;;;;;;;;;;5092746;28;20085;-69
2023/12/12 06:49:24;;;;;;;63.83;20.58;;;;;;;;;;5094669;28;20040;-69
2023/12/12 06:51:50;;;;;;;48.00;19.30;;;;;;;;;;5095249;28;20048;-69
2023/12/12 06:54:16;;;;;;;64.43;20.65;;;;;;;;;;5059291;28;20078;-69
2023/12/12 06:56:42;;;;;;;44.22;20.10;;;;;;;;;;5079938;28;20537;-69
2023/12/12 06:59:09;;;;;;;43.13;21.38;;;;;;;;;;5090252;28;20048;-69
2023/12/12 07:01:35;;;;;;;45.20;21.58;;;;;;;;;;5090434;28;20078;-69
2023/12/12 07:04:01;;;;;;;45.15;21.05;;;;;;;;;;5096706;28;20119;-68
2023/12/12 07:06:27;;;;;;;48.28;20.48;;;;;;;;;;5095824;28;20544;-68
2023/12/12 07:08:53;;;;;;;42.33;21.40;;;;;;;;;;5096570;28;20475;-68
2023/12/12 07:11:19;;;;;;;45.63;21.95;;;;;;;;;;5096482;28;20039;-68
2023/12/12 07:13:45;;;;;;;44.90;20.75;;;;;;;;;;5099798;28;20043;-71
2023/12/12 07:16:12;;;;;;;42.25;21.67;;;;;;;;;;5097560;28;20043;-70
2023/12/12 07:18:38;;;;;;;49.15;24.30;;;;;;;;;;5098256;28;20067;-70
2023/12/12 07:21:05;;;;;;;49.20;22.83;;;;;;;;;;5099932;28;20103;-70
2023/12/12 07:23:32;;;;;;;44.25;22.23;;;;;;;;;;5101872;28;20036;-70
2023/12/12 07:25:59;;;;;;;41.13;21.33;;;;;;;;;;5097920;28;20230;-71
2023/12/12 07:28:25;;;;;;;37.83;21.17;;;;;;;;;;5090541;28;20044;-72
2023/12/12 07:30:53;;;;;;;43.83;20.65;;;;;;;;;;5090787;28;20074;-70
2023/12/12 07:33:19;;;;;;;40.85;21.48;;;;;;;;;;5080260;28;20036;-65
2023/12/12 07:35:46;;;;;;;37.78;19.63;;;;;;;;;;5087841;28;20068;-67
2023/12/12 07:38:12;;;;;;;40.28;20.73;;;;;;;;;;5089012;28;20044;-67
2023/12/12 07:40:38;;;;;;;40.20;20.17;;;;;;;;;;5090554;28;20036;-66
2023/12/12 07:43:04;;;;;;;36.97;19.85;;;;;;;;;;5088941;28;20122;-66
2023/12/12 07:45:30;;;;;;;37.13;19.05;;;;;;;;;;5089109;28;20093;-66
2023/12/12 07:47:56;;;;;;;43.42;20.10;;;;;;;;;;5089106;28;20414;-66
2023/12/12 07:50:22;;;;;;;39.20;19.95;;;;;;;;;;5090034;28;20559;-67
2023/12/12 07:52:49;;;;;;;43.67;21.00;;;;;;;;;;5088677;28;20036;-67
2023/12/12 07:55:15;;;;;;;55.10;22.15;;;;;;;;;;5088843;28;20043;-67
2023/12/12 07:57:41;;;;;;;51.88;20.70;;;;;;;;;;5088388;28;20052;-66
2023/12/12 08:00:10;;;;;;;62.38;22.40;;;;;;;;;;5090137;28;20044;-66
2023/12/12 08:02:36;;;;;;;67.85;21.50;;;;;;;;;;5083734;28;20043;-66
2023/12/12 08:05:06;;;;;;;61.72;21.70;;;;;;;;;;5090371;28;20486;-66
2023/12/12 08:07:32;;;;;;;65.07;23.35;;;;;;;;;;5075537;28;20085;-66
2023/12/12 08:09:59;;;;;;;64.57;23.10;;;;;;;;;;5094669;28;20138;-67
2023/12/12 08:12:25;;;;;;;52.65;22.30;;;;;;;;;;5092116;28;20482;-65
2023/12/12 08:14:55;;;;;;;50.78;22.88;;;;;;;;;;5092951;28;20478;-66
2023/12/12 08:17:21;;;;;;;49.30;23.52;;;;;;;;;;5086999;28;20779;-67
2023/12/12 08:19:47;;;;;;;49.85;24.08;;;;;;;;;;5090313;28;20675;-67
2023/12/12 08:22:13;;;;;;;45.47;23.70;;;;;;;;;;5092531;28;20089;-67
2023/12/12 08:24:40;;;;;;;50.03;23.75;;;;;;;;;;5092524;28;20051;-68
2023/12/12 08:27:07;;;;;;;42.90;23.27;;;;;;;;;;5091344;28;20043;-66
2023/12/12 08:29:33;;;;;;;59.20;23.20;;;;;;;;;;5091951;28;20046;-66
2023/12/12 08:31:59;;;;;;;50.00;21.40;;;;;;;;;;5093738;28;20181;-66
2023/12/12 08:34:25;;;;;;;45.88;19.67;;;;;;;;;;5092002;28;20501;-67
2023/12/12 08:36:51;;;;;;;46.05;20.52;;;;;;;;;;5093002;28;20389;-67
2023/12/12 08:39:17;;;;;;;43.67;20.20;;;;;;;;;;5093453;28;20097;-68
2023/12/12 08:41:44;;;;;;;43.47;19.73;;;;;;;;;;5091771;28;20059;-68
2023/12/12 08:44:10;;;;;;;46.85;19.88;;;;;;;;;;5092114;28;20127;-68
2023/12/12 08:46:36;;;;;;;46.85;19.67;;;;;;;;;;5091202;28;20532;-66
2023/12/12 08:49:03;;;;;;;53.72;20.95;;;;;;;;;;5078656;28;20039;-67
2023/12/12 08:51:33;;;;;;;43.75;20.33;;;;;;;;;;5093057;28;20043;-66
2023/12/12 08:53:59;;;;;;;41.03;20.40;;;;;;;;;;5091876;28;20048;-66
2023/12/12 08:56:25;;;;;;;40.58;19.85;;;;;;;;;;5090320;28;20036;-67
2023/12/12 08:58:51;;;;;;;43.95;21.55;;;;;;;;;;5086107;28;20043;-68
2023/12/12 09:01:18;;;;;;;44.08;20.58;;;;;;;;;;5067653;28;20044;-67
2023/12/12 09:03:44;;;;;;;52.63;21.73;;;;;;;;;;5091464;28;20044;-66
2023/12/12 09:06:12;;;;;;;46.00;22.88;;;;;;;;;;5090169;28;20042;-66
2023/12/12 09:08:44;;;;;;;48.03;21.30;;;;;;;;;;5091426;28;20071;-65
2023/12/12 09:11:10;;;;;;;41.53;21.98;;;;;;;;;;5090051;28;20064;-66
2023/12/12 09:13:37;;;;;;;52.22;20.58;;;;;;;;;;5089980;28;20042;-65
2023/12/12 09:16:03;;;;;;;50.83;19.90;;;;;;;;;;5091064;28;20046;-65
2023/12/12 09:18:29;;;;;;;43.67;21.88;;;;;;;;;;5090481;28;20047;-65
2023/12/12 09:20:55;;;;;;;58.22;23.02;;;;;;;;;;5089689;28;20119;-67
2023/12/12 09:23:22;;;;;;;43.33;21.50;;;;;;;;;;5089907;28;20126;-66
2023/12/12 09:25:49;;;;;;;48.22;21.17;;;;;;;;;;5089254;28;20059;-66
2023/12/12 09:28:16;;;;;;;46.40;21.35;;;;;;;;;;5089129;28;20454;-69
2023/12/12 09:30:42;;;;;;;50.05;21.63;;;;;;;;;;5090963;28;20508;-69
2023/12/12 09:33:08;;;;;;;50.40;22.02;;;;;;;;;;5090136;28;20067;-67
2023/12/12 09:35:36;;;;;;;51.72;21.73;;;;;;;;;;5089281;28;20039;-67
2023/12/12 09:38:02;;;;;;;38.80;21.08;;;;;;;;;;5089521;28;20097;-67
2023/12/12 09:40:28;;;;;;;44.78;22.15;;;;;;;;;;5089333;28;20081;-66
2023/12/12 09:42:55;;;;;;;33.55;21.27;;;;;;;;;;5089693;28;20548;-69
2023/12/12 09:45:23;;;;;;;50.00;21.63;;;;;;;;;;5089936;28;20132;-66
2023/12/12 09:47:50;;;;;;;38.90;21.33;;;;;;;;;;5089488;28;20073;-66
2023/12/12 09:50:17;;;;;;;50.17;22.48;;;;;;;;;;5071662;28;20052;-66
2023/12/12 09:52:45;;;;;;;47.83;23.85;;;;;;;;;;5089741;28;20115;-65
2023/12/12 09:55:11;;;;;;;90.60;25.90;;;;;;;;;;5089977;28;20084;-66
2023/12/12 09:57:37;;;;;;;44.17;23.55;;;;;;;;;;5051087;28;1090319;-66
2023/12/12 10:00:04;;;;;;;45.75;22.98;;;;;;;;;;5092897;28;20052;-66
2023/12/12 10:02:40;;;;;;;46.70;23.85;;;;;;;;;;5091503;28;20127;-66
2023/12/12 10:05:09;;;;;;;40.38;23.58;;;;;;;;;;5091211;28;20040;-65
2023/12/12 10:07:36;;;;;;;37.50;23.65;;;;;;;;;;5091517;28;20040;-66
2023/12/12 10:10:05;;;;;;;38.47;23.45;;;;;;;;;;5091800;28;20039;-66
2023/12/12 10:12:31;;;;;;;42.55;23.15;;;;;;;;;;5090066;28;20044;-67
2023/12/12 10:14:58;;;;;;;35.92;23.00;;;;;;;;;;5091544;28;20356;-67
2023/12/12 10:17:25;;;;;;;38.90;23.52;;;;;;;;;;5090177;28;20048;-67
2023/12/12 10:20:04;;;;;;;36.65;23.60;;;;;;;;;;5089379;28;20056;-67
2023/12/12 10:22:33;;;;;;;36.30;24.00;;;;;;;;;;5089708;28;20040;-67
2023/12/12 10:25:14;;;;;;;43.10;24.67;;;;;;;;;;5073100;28;20047;-67
2023/12/12 10:27:43;;;;;;;36.53;22.73;;;;;;;;;;5090194;28;20044;-67
2023/12/12 10:30:10;;;;;;;49.58;24.10;;;;;;;;;;5089879;28;20043;-67
2023/12/12 10:32:37;;;;;;;34.13;23.70;;;;;;;;;;5089479;28;20044;-67
2023/12/12 10:35:04;;;;;;;42.85;26.10;;;;;;;;;;5090051;28;20070;-67
2023/12/12 10:37:30;;;;;;;35.20;23.48;;;;;;;;;;5089704;28;20547;-66
2023/12/12 10:39:56;;;;;;;33.20;22.42;;;;;;;;;;5089742;28;20063;-68
2023/12/12 10:42:23;;;;;;;33.75;22.85;;;;;;;;;;5090632;28;20051;-67
2023/12/12 10:44:53;;;;;;;33.50;23.42;;;;;;;;;;5089398;28;20051;-67
2023/12/12 10:47:21;;;;;;;34.22;22.17;;;;;;;;;;5087733;28;20059;-65
2023/12/12 10:49:48;;;;;;;34.20;22.98;;;;;;;;;;5089452;28;20462;-65
2023/12/12 10:52:15;;;;;;;33.85;22.65;;;;;;;;;;5090802;28;20534;-65
2023/12/12 10:54:43;;;;;;;33.67;22.42;;;;;;;;;;5091230;28;20364;-67
2023/12/12 10:57:10;;;;;;;34.25;23.13;;;;;;;;;;5089042;28;20068;-68
2023/12/12 10:59:38;;;;;;;35.40;23.25;;;;;;;;;;5089130;28;20052;-67
2023/12/12 11:02:04;;;;;;;36.80;23.88;;;;;;;;;;5089439;28;20036;-67
2023/12/12 11:04:30;;;;;;;34.15;21.85;;;;;;;;;;5088875;28;20040;-68
2023/12/12 11:06:56;;;;;;;37.63;23.02;;;;;;;;;;5072493;28;20508;-67
2023/12/12 11:09:22;;;;;;;34.90;23.27;;;;;;;;;;5089085;28;20044;-68
2023/12/12 11:11:50;;;;;;;36.72;22.98;;;;;;;;;;5072493;28;20051;-70
2023/12/12 11:14:17;;;;;;;35.58;22.95;;;;;;;;;;5072252;28;20070;-66
2023/12/12 11:16:43;;;;;;;37.55;22.92;;;;;;;;;;5072692;28;20040;-66
2023/12/12 11:19:16;;;;;;;35.65;21.75;;;;;;;;;;5090027;28;20079;-68
2023/12/12 11:21:49;;;;;;;33.15;22.00;;;;;;;;;;5088987;28;20062;-65
2023/12/12 11:24:16;;;;;;;35.17;22.45;;;;;;;;;;5090478;28;20043;-65
2023/12/12 11:26:44;;;;;;;37.50;23.33;;;;;;;;;;5089586;28;20076;-65
2023/12/12 11:29:14;;;;;;;35.70;22.15;;;;;;;;;;5090591;28;20371;-65
2023/12/12 11:31:59;;;;;;;36.13;22.23;;;;;;;;;;5090779;28;20115;-65
2023/12/12 11:34:26;;;;;;;35.47;21.95;;;;;;;;;;5090751;28;20040;-65
2023/12/12 11:36:57;;;;;;;40.08;23.33;;;;;;;;;;5090636;28;20130;-65
2023/12/12 11:39:29;;;;;;;41.43;23.97;;;;;;;;;;5089487;28;20051;-66
2023/12/12 11:41:55;;;;;;;48.45;25.38;;;;;;;;;;5089041;28;20056;-68
2023/12/12 11:44:22;;;;;;;49.45;27.02;;;;;;;;;;5088917;28;20051;-68
2023/12/12 11:46:48;;;;;;;54.88;28.90;;;;;;;;;;5088465;28;20054;-67
2023/12/12 11:49:21;;;;;;;56.55;28.77;;;;;;;;;;5090216;28;20382;-67
2023/12/12 11:51:50;;;;;;;57.10;29.48;;;;;;;;;;5088962;28;20449;-67
2023/12/12 11:54:25;;;;;;;63.85;28.75;;;;;;;;;;5089936;28;20115;-68
2023/12/12 11:56:56;;;;;;;53.58;27.10;;;;;;;;;;5085223;28;20057;-69
2023/12/12 11:59:23;;;;;;;58.17;27.40;;;;;;;;;;5081136;28;20391;-70
2023/12/12 12:01:49;;;;;;;53.22;26.50;;;;;;;;;;5087296;28;20060;-68
2023/12/12 12:04:16;;;;;;;51.25;26.52;;;;;;;;;;5087336;28;20470;-71
2023/12/12 12:06:43;;;;;;;51.72;27.08;;;;;;;;;;5071951;28;20131;-70
2023/12/12 12:09:10;;;;;;;49.97;26.25;;;;;;;;;;5088336;28;20055;-70
2023/12/12 12:11:36;;;;;;;51.95;26.88;;;;;;;;;;5087297;28;20123;-70
2023/12/12 12:14:03;;;;;;;47.25;25.25;;;;;;;;;;5089103;28;20569;-69
2023/12/12 12:16:29;;;;;;;53.47;27.30;;;;;;;;;;5072020;28;20032;-68
2023/12/12 12:18:55;;;;;;;53.97;25.75;;;;;;;;;;5088754;28;20044;-69
2023/12/12 12:21:25;;;;;;;51.42;26.55;;;;;;;;;;5089981;28;20089;-67
2023/12/12 12:23:52;;;;;;;55.13;27.00;;;;;;;;;;5089656;28;20048;-68
2023/12/12 12:26:18;;;;;;;55.85;26.58;;;;;;;;;;5088707;28;20052;-67
2023/12/12 12:28:44;;;;;;;50.38;26.27;;;;;;;;;;5090259;28;20042;-70
2023/12/12 12:31:10;;;;;;;53.88;26.70;;;;;;;;;;5089401;28;20047;-70
2023/12/12 12:33:37;;;;;;;51.90;26.13;;;;;;;;;;5089097;28;20040;-69
2023/12/12 12:36:04;;;;;;;56.75;25.80;;;;;;;;;;5091902;28;20032;-69
2023/12/12 12:38:31;;;;;;;47.88;25.02;;;;;;;;;;5089758;28;20119;-70
2023/12/12 12:40:57;;;;;;;53.15;23.88;;;;;;;;;;5088129;28;20137;-69
2023/12/12 12:43:23;;;;;;;49.55;24.70;;;;;;;;;;5088083;28;20052;-69
2023/12/12 12:45:50;;;;;;;51.83;25.83;;;;;;;;;;5088706;28;20437;-69
2023/12/12 12:48:17;;;;;;;56.72;26.63;;;;;;;;;;5088563;28;20044;-67
2023/12/12 12:50:44;;;;;;;50.80;25.85;;;;;;;;;;5089989;28;20036;-68
2023/12/12 12:53:10;;;;;;;53.25;25.25;;;;;;;;;;5074868;28;20032;-68
2023/12/12 12:55:38;;;;;;;52.85;25.92;;;;;;;;;;5092526;28;20036;-68
2023/12/12 12:58:04;;;;;;;58.05;25.38;;;;;;;;;;5091991;28;20418;-68
2023/12/12 13:00:30;;;;;;;58.80;26.42;;;;;;;;;;5091812;28;20044;-68
2023/12/12 13:02:56;;;;;;;58.05;25.83;;;;;;;;;;5093077;28;20122;-68
2023/12/12 13:05:25;;;;;;;54.55;26.58;;;;;;;;;;5086949;28;20415;-71
2023/12/12 13:07:51;;;;;;;59.65;27.20;;;;;;;;;;5078764;28;20378;-71
2023/12/12 13:10:17;;;;;;;60.40;27.17;;;;;;;;;;5091672;28;20097;-68
2023/12/12 13:12:43;;;;;;;55.83;25.58;;;;;;;;;;5093201;28;20036;-69
2023/12/12 13:15:09;;;;;;;63.25;26.40;;;;;;;;;;5093188;28;20097;-69
2023/12/12 13:17:36;;;;;;;61.25;26.70;;;;;;;;;;5091305;28;20059;-68
2023/12/12 13:20:11;;;;;;;60.72;26.90;;;;;;;;;;5093480;28;20125;-68
2023/12/12 13:22:41;;;;;;;60.58;28.30;;;;;;;;;;5092890;28;20089;-70
2023/12/12 13:25:11;;;;;;;60.70;27.48;;;;;;;;;;5090717;28;20066;-70
2023/12/12 13:27:37;;;;;;;63.85;29.02;;;;;;;;;;5092310;28;20087;-70
2023/12/12 13:30:10;;;;;;;65.43;28.13;;;;;;;;;;5093128;28;20051;-68
2023/12/12 13:32:36;;;;;;;;;;;;;;;;;;5089712;28;20036;-68
2023/12/12 13:35:02;;;;;;;73.10;28.98;;;;;;;;;;5083704;28;19938;-70
2023/12/12 13:37:30;;;;;;;67.40;30.13;;;;;;;;;;5092125;28;20117;-69
2023/12/12 13:39:56;;;;;;;76.75;31.02;;;;;;;;;;5095427;28;20044;-69
2023/12/12 13:42:23;;;;;;;85.38;33.25;;;;;;;;;;5091170;28;20047;-67
2023/12/12 13:44:49;;;;;;;81.65;33.60;;;;;;;;;;5093039;28;20055;-67
2023/12/12 13:47:15;;;;;;;82.35;33.17;;;;;;;;;;5088361;28;20043;-69
2023/12/12 13:49:42;;;;;;;83.90;35.42;;;;;;;;;;5092650;28;20390;-69
2023/12/12 13:52:08;;;;;;;88.47;34.55;;;;;;;;;;5087908;28;20055;-69
2023/12/12 13:54:34;;;;;;;92.18;36.22;;;;;;;;;;5078937;28;20062;-69
2023/12/12 13:57:00;;;;;;;92.07;35.08;;;;;;;;;;5091207;28;20048;-69
2023/12/12 13:59:26;;;;;;;96.22;36.92;;;;;;;;;;5090659;28;20062;-69
2023/12/12 14:01:52;;;;;;;94.25;36.10;;;;;;;;;;5090810;28;20501;-69
2023/12/12 14:04:19;;;;;;;94.88;37.50;;;;;;;;;;5091933;28;20054;-67
2023/12/12 14:06:45;;;;;;;93.30;36.97;;;;;;;;;;5090905;28;20052;-68
2023/12/12 14:09:11;;;;;;;96.93;37.30;;;;;;;;;;5092411;28;20032;-68
2023/12/12 14:11:37;;;;;;;93.93;37.42;;;;;;;;;;5090863;28;20068;-69
2023/12/12 14:14:03;;;;;;;101.25;39.25;;;;;;;;;;5091851;28;20382;-68
2023/12/12 14:16:30;;;;;;;98.63;39.28;;;;;;;;;;5090365;28;20514;-68
2023/12/12 14:18:57;;;;;;;101.55;40.90;;;;;;;;;;5092109;28;20044;-71
2023/12/12 14:21:23;;;;;;;97.22;36.53;;;;;;;;;;5092312;28;20036;-68